createdAt,value
2024-03-05T00:00:53.869Z,602.00
2024-03-05T00:01:54.221Z,608.00
2024-03-05T00:02:53.912Z,603.00
2024-03-05T00:03:53.940Z,602.00
2024-03-05T00:04:54.068Z,604.00
2024-03-05T00:05:53.974Z,604.00
2024-03-05T00:06:54.265Z,604.00
2024-03-05T00:07:54.238Z,602.00
2024-03-05T00:08:54.108Z,600.00
2024-03-05T00:09:54.299Z,600.00
2024-03-05T00:10:54.285Z,603.00
2024-03-05T00:11:54.762Z,601.00
2024-03-05T00:12:54.270Z,605.00
2024-03-05T00:13:54.519Z,603.00
2024-03-05T00:14:54.321Z,600.00
2024-03-05T00:15:54.410Z,601.00
2024-03-05T00:16:54.883Z,603.00
2024-03-05T00:17:54.437Z,600.00
2024-03-05T00:18:54.469Z,606.00
2024-03-05T00:19:54.613Z,603.00
2024-03-05T00:20:54.554Z,603.00
2024-03-05T00:21:54.754Z,602.00
2024-03-05T00:22:54.707Z,607.00
2024-03-05T00:23:54.647Z,605.00
2024-03-05T00:24:54.791Z,602.00
2024-03-05T00:25:54.925Z,604.00
2024-03-05T00:26:55.249Z,600.00
2024-03-05T00:27:54.820Z,600.00
2024-03-05T00:28:55.030Z,604.00
2024-03-05T00:29:54.934Z,605.00
2024-03-05T00:30:54.980Z,602.00
2024-03-05T00:31:55.280Z,603.00
2024-03-05T00:32:55.062Z,602.00
2024-03-05T00:33:55.066Z,601.00
2024-03-05T00:34:55.146Z,600.00
2024-03-05T00:35:55.167Z,605.00
2024-03-05T00:36:55.280Z,608.00
2024-03-05T00:37:55.316Z,602.00
2024-03-05T00:38:55.272Z,602.00
2024-03-05T00:39:55.348Z,600.00
2024-03-05T00:40:55.486Z,602.00
2024-03-05T00:41:55.757Z,601.00
2024-03-05T00:42:55.391Z,600.00
2024-03-05T00:43:55.587Z,602.00
2024-03-05T00:44:55.490Z,603.00
2024-03-05T00:45:55.519Z,601.00
2024-03-05T00:46:55.853Z,604.00
2024-03-05T00:47:55.619Z,603.00
2024-03-05T00:48:55.660Z,601.00
2024-03-05T00:49:55.780Z,605.00
2024-03-05T00:50:55.723Z,600.00
2024-03-05T00:51:56.257Z,601.00
2024-03-05T00:52:56.002Z,603.00
2024-03-05T00:53:55.832Z,601.00
2024-03-05T00:54:55.921Z,603.00
2024-03-05T00:55:55.978Z,602.00
2024-03-05T00:56:56.274Z,609.00
2024-03-05T00:57:56.013Z,605.00
2024-03-05T00:58:56.096Z,607.00
2024-03-05T00:59:56.114Z,606.00
2024-03-05T01:00:56.167Z,604.00
2024-03-05T01:01:56.292Z,604.00
2024-03-05T01:02:56.218Z,604.00
2024-03-05T01:03:56.242Z,602.00
2024-03-05T01:04:56.417Z,602.00
2024-03-05T01:05:56.341Z,600.00
2024-03-05T01:06:56.752Z,600.00
2024-03-05T01:07:56.444Z,602.00
2024-03-05T01:08:56.505Z,605.00
2024-03-05T01:09:56.508Z,607.00
2024-03-05T01:10:56.657Z,604.00
2024-03-05T01:11:56.762Z,605.00
2024-03-05T01:12:56.632Z,603.00
2024-03-05T01:13:56.778Z,601.00
2024-03-05T01:14:56.721Z,603.00
2024-03-05T01:15:56.734Z,604.00
2024-03-05T01:16:57.351Z,601.00
2024-03-05T01:17:56.850Z,606.00
2024-03-05T01:18:56.886Z,605.00
2024-03-05T01:19:56.935Z,602.00
2024-03-05T01:20:56.976Z,601.00
2024-03-05T01:21:57.234Z,602.00
2024-03-05T01:22:57.076Z,605.00
2024-03-05T01:23:57.078Z,600.00
2024-03-05T01:24:57.142Z,605.00
2024-03-05T01:25:57.316Z,604.00
2024-03-05T01:26:57.234Z,604.00
2024-03-05T01:27:57.225Z,601.00
2024-03-05T01:28:57.372Z,601.00
2024-03-05T01:29:57.337Z,600.00
2024-03-05T01:30:57.357Z,604.00
2024-03-05T01:31:58.182Z,606.00
2024-03-05T01:32:57.500Z,607.00
2024-03-05T01:33:57.512Z,604.00
2024-03-05T01:34:57.558Z,602.00
2024-03-05T01:35:57.621Z,603.00
2024-03-05T01:36:57.687Z,600.00
2024-03-05T01:37:57.787Z,603.00
2024-03-05T01:38:57.775Z,602.00
2024-03-05T01:39:57.808Z,602.00
2024-03-05T01:40:57.852Z,604.00
2024-03-05T01:41:58.349Z,600.00
2024-03-05T01:42:57.941Z,603.00
2024-03-05T01:43:58.038Z,604.00
2024-03-05T01:44:58.007Z,601.00
2024-03-05T01:45:58.076Z,601.00
2024-03-05T01:46:58.167Z,600.00
2024-03-05T01:47:58.188Z,603.00
2024-03-05T01:48:58.248Z,602.00
2024-03-05T01:49:58.329Z,600.00
2024-03-05T01:50:58.347Z,602.00
2024-03-05T01:51:58.393Z,607.00
2024-03-05T01:52:58.566Z,600.00
2024-03-05T01:53:58.493Z,604.00
2024-03-05T01:55:00.250Z,604.00
2024-03-05T01:55:58.665Z,604.00
2024-03-05T01:56:58.728Z,604.00
2024-03-05T01:57:58.690Z,601.00
2024-03-05T01:58:58.710Z,602.00
2024-03-05T01:59:58.737Z,604.00
2024-03-05T02:00:58.896Z,604.00
2024-03-05T02:01:59.362Z,602.00
2024-03-05T02:02:58.909Z,600.00
2024-03-05T02:03:58.998Z,603.00
2024-03-05T02:04:59.040Z,604.00
2024-03-05T02:05:59.055Z,606.00
2024-03-05T02:06:59.105Z,601.00
2024-03-05T02:07:59.144Z,604.00
2024-03-05T02:08:59.158Z,600.00
2024-03-05T02:09:59.234Z,604.00
2024-03-05T02:10:59.339Z,606.00
2024-03-05T02:12:02.981Z,603.00
2024-03-05T02:12:59.319Z,604.00
2024-03-05T02:13:59.356Z,603.00
2024-03-05T02:14:59.348Z,601.00
2024-03-05T02:15:59.310Z,604.00
2024-03-05T02:16:59.861Z,607.00
2024-03-05T02:17:59.399Z,602.00
2024-03-05T02:18:59.375Z,603.00
2024-03-05T02:19:59.390Z,602.00
2024-03-05T02:20:59.351Z,600.00
2024-03-05T02:21:59.309Z,602.00
2024-03-05T02:22:59.778Z,604.00
2024-03-05T02:23:59.338Z,601.00
2024-03-05T02:24:59.344Z,602.00
2024-03-05T02:25:59.379Z,601.00
2024-03-05T02:26:59.308Z,605.00
2024-03-05T02:27:59.784Z,606.00
2024-03-05T02:28:59.321Z,605.00
2024-03-05T02:29:59.361Z,604.00
2024-03-05T02:30:59.366Z,600.00
2024-03-05T02:31:59.394Z,603.00
2024-03-05T02:32:59.772Z,605.00
2024-03-05T02:33:59.342Z,602.00
2024-03-05T02:34:59.356Z,603.00
2024-03-05T02:35:59.323Z,607.00
2024-03-05T02:36:59.349Z,603.00
2024-03-05T02:38:00.290Z,604.00
2024-03-05T02:38:59.352Z,604.00
2024-03-05T02:39:59.416Z,601.00
2024-03-05T02:40:59.530Z,607.00
2024-03-05T02:41:59.467Z,601.00
2024-03-05T02:42:59.788Z,601.00
2024-03-05T02:43:59.624Z,602.00
2024-03-05T02:44:59.648Z,606.00
2024-03-05T02:45:59.677Z,607.00
2024-03-05T02:46:59.802Z,607.00
2024-03-05T02:48:00.312Z,604.00
2024-03-05T02:48:59.859Z,606.00
2024-03-05T02:49:59.885Z,603.00
2024-03-05T02:50:59.894Z,607.00
2024-03-05T02:51:59.970Z,605.00
2024-03-05T02:53:00.297Z,604.00
2024-03-05T02:54:00.072Z,603.00
2024-03-05T02:55:00.118Z,604.00
2024-03-05T02:56:00.162Z,603.00
2024-03-05T02:57:00.209Z,603.00
2024-03-05T02:58:00.789Z,606.00
2024-03-05T02:59:00.370Z,604.00
2024-03-05T03:00:00.366Z,604.00
2024-03-05T03:01:00.483Z,607.00
2024-03-05T03:02:00.451Z,604.00
2024-03-05T03:03:00.783Z,604.00
2024-03-05T03:04:00.572Z,605.00
2024-03-05T03:05:00.727Z,601.00
2024-03-05T03:06:00.662Z,604.00
2024-03-05T03:07:00.701Z,603.00
2024-03-05T03:08:01.325Z,603.00
2024-03-05T03:09:00.810Z,604.00
2024-03-05T03:10:00.895Z,606.00
2024-03-05T03:11:01.006Z,602.00
2024-03-05T03:12:00.961Z,602.00
2024-03-05T03:13:01.278Z,605.00
2024-03-05T03:14:01.128Z,601.00
2024-03-05T03:15:01.117Z,602.00
2024-03-05T03:16:01.147Z,603.00
2024-03-05T03:17:01.256Z,601.00
2024-03-05T03:18:01.280Z,602.00
2024-03-05T03:19:01.332Z,603.00
2024-03-05T03:20:01.507Z,605.00
2024-03-05T03:21:01.409Z,604.00
2024-03-05T03:22:01.594Z,603.00
2024-03-05T03:23:01.869Z,604.00
2024-03-05T03:24:01.579Z,604.00
2024-03-05T03:25:01.594Z,603.00
2024-03-05T03:26:01.799Z,603.00
2024-03-05T03:27:01.748Z,607.00
2024-03-05T03:28:02.314Z,604.00
2024-03-05T03:29:01.904Z,600.00
2024-03-05T03:30:01.886Z,604.00
2024-03-05T03:31:01.960Z,603.00
2024-03-05T03:32:02.043Z,604.00
2024-03-05T03:33:02.361Z,605.00
2024-03-05T03:34:02.087Z,603.00
2024-03-05T03:35:02.233Z,605.00
2024-03-05T03:36:02.173Z,604.00
2024-03-05T03:37:02.236Z,605.00
2024-03-05T03:38:02.843Z,605.00
2024-03-05T03:39:02.358Z,604.00
2024-03-05T03:40:02.435Z,605.00
2024-03-05T03:41:02.551Z,603.00
2024-03-05T03:42:02.498Z,602.00
2024-03-05T03:43:02.781Z,603.00
2024-03-05T03:44:02.575Z,607.00
2024-03-05T03:45:02.665Z,604.00
2024-03-05T03:46:02.677Z,607.00
2024-03-05T03:47:02.767Z,601.00
2024-03-05T03:48:02.821Z,605.00
2024-03-05T03:49:02.828Z,603.00
2024-03-05T03:50:02.853Z,608.00
2024-03-05T03:51:02.897Z,605.00
2024-03-05T03:52:02.924Z,604.00
2024-03-05T03:53:03.325Z,600.00
2024-03-05T03:54:03.006Z,604.00
2024-03-05T03:55:03.069Z,605.00
2024-03-05T03:56:03.145Z,605.00
2024-03-05T03:57:03.164Z,605.00
2024-03-05T03:58:03.304Z,603.00
2024-03-05T03:59:03.256Z,604.00
2024-03-05T04:00:03.304Z,604.00
2024-03-05T04:01:03.337Z,605.00
2024-03-05T04:02:03.479Z,600.00
2024-03-05T04:03:03.812Z,605.00
2024-03-05T04:04:03.455Z,602.00
2024-03-05T04:05:03.492Z,607.00
2024-03-05T04:06:03.571Z,604.00
2024-03-05T04:07:03.611Z,606.00
2024-03-05T04:08:04.993Z,606.00
2024-03-05T04:09:03.674Z,607.00
2024-03-05T04:10:03.716Z,607.00
2024-03-05T04:11:03.886Z,604.00
2024-03-05T04:12:03.812Z,601.00
2024-03-05T04:13:04.296Z,604.00
2024-03-05T04:14:04.758Z,604.00
2024-03-05T04:15:03.986Z,602.00
2024-03-05T04:16:03.995Z,601.00
2024-03-05T04:17:04.110Z,604.00
2024-03-05T04:18:04.404Z,605.00
2024-03-05T04:19:04.159Z,604.00
2024-03-05T04:20:04.221Z,602.00
2024-03-05T04:21:04.234Z,606.00
2024-03-05T04:22:04.286Z,604.00
2024-03-05T04:23:04.887Z,601.00
2024-03-05T04:24:05.295Z,600.00
2024-03-05T04:25:04.406Z,604.00
2024-03-05T04:26:04.514Z,602.00
2024-03-05T04:27:04.641Z,604.00
2024-03-05T04:28:04.793Z,600.00
2024-03-05T04:29:04.624Z,600.00
2024-03-05T04:30:04.598Z,602.00
2024-03-05T04:31:11.830Z,600.00
2024-03-05T04:32:11.873Z,600.00
2024-03-05T04:33:11.964Z,600.00
2024-03-05T04:34:11.823Z,600.00
2024-03-05T04:35:11.857Z,600.00
2024-03-05T04:36:11.825Z,603.00
2024-03-05T04:37:11.948Z,604.00
2024-03-05T04:38:11.932Z,600.00
2024-03-05T04:39:11.831Z,605.00
2024-03-05T04:40:11.852Z,605.00
2024-03-05T04:41:11.815Z,603.00
2024-03-05T04:42:11.852Z,601.00
2024-03-05T04:43:11.996Z,607.00
2024-03-05T04:44:11.833Z,600.00
2024-03-05T04:45:11.835Z,601.00
2024-03-05T04:46:11.853Z,604.00
2024-03-05T04:47:11.834Z,605.00
2024-03-05T04:48:11.967Z,601.00
2024-03-05T04:49:11.847Z,603.00
2024-03-05T04:50:11.865Z,607.00
2024-03-05T04:51:11.888Z,604.00
2024-03-05T04:52:11.865Z,607.00
2024-03-05T04:53:11.979Z,602.00
2024-03-05T04:54:11.880Z,606.00
2024-03-05T04:55:11.890Z,605.00
2024-03-05T04:56:11.896Z,602.00
2024-03-05T04:57:11.857Z,604.00
2024-03-05T04:58:11.961Z,605.00
2024-03-05T04:59:11.938Z,601.00
2024-03-05T05:00:12.010Z,604.00
2024-03-05T05:01:12.052Z,602.00
2024-03-05T05:02:12.142Z,600.00
2024-03-05T05:03:12.437Z,604.00
2024-03-05T05:04:12.214Z,604.00
2024-03-05T05:05:12.243Z,606.00
2024-03-05T05:06:12.348Z,605.00
2024-03-05T05:07:12.335Z,603.00
2024-03-05T05:08:12.444Z,601.00
2024-03-05T05:09:12.452Z,606.00
2024-03-05T05:10:12.492Z,603.00
2024-03-05T05:11:12.645Z,603.00
2024-03-05T05:12:12.642Z,607.00
2024-03-05T05:13:12.947Z,608.00
2024-03-05T05:14:12.776Z,602.00
2024-03-05T05:15:12.804Z,607.00
2024-03-05T05:16:12.893Z,606.00
2024-03-05T05:17:12.886Z,605.00
2024-03-05T05:18:12.995Z,603.00
2024-03-05T05:19:12.994Z,605.00
2024-03-05T05:20:13.077Z,605.00
2024-03-05T05:21:13.102Z,604.00
2024-03-05T05:22:13.161Z,600.00
2024-03-05T05:23:13.477Z,603.00
2024-03-05T05:24:13.256Z,602.00
2024-03-05T05:25:13.292Z,602.00
2024-03-05T05:26:13.354Z,605.00
2024-03-05T05:27:13.384Z,600.00
2024-03-05T05:28:13.447Z,606.00
2024-03-05T05:29:20.241Z,604.00
2024-03-05T05:30:15.028Z,605.00
2024-03-05T05:31:13.507Z,605.00
2024-03-05T05:32:13.485Z,606.00
2024-03-05T05:33:14.543Z,606.00
2024-03-05T05:34:13.520Z,609.00
2024-03-05T05:35:13.525Z,606.00
2024-03-05T05:36:13.510Z,608.00
2024-03-05T05:37:13.509Z,609.00
2024-03-05T05:38:13.536Z,606.00
2024-03-05T05:39:13.531Z,606.00
2024-03-05T05:41:13.550Z,604.00
2024-03-05T05:42:13.548Z,605.00
2024-03-05T05:43:13.634Z,606.00
2024-03-05T05:44:13.698Z,605.00
2024-03-05T05:45:13.740Z,602.00
2024-03-05T05:46:13.749Z,605.00
2024-03-05T05:47:13.864Z,607.00
2024-03-05T05:48:13.968Z,605.00
2024-03-05T05:49:13.947Z,606.00
2024-03-05T05:50:13.979Z,604.00
2024-03-05T05:51:14.030Z,601.00
2024-03-05T05:52:14.066Z,600.00
2024-03-05T05:53:14.475Z,603.00
2024-03-05T05:54:14.172Z,603.00
2024-03-05T05:55:14.254Z,606.00
2024-03-05T05:56:14.284Z,604.00
2024-03-05T05:57:14.305Z,601.00
2024-03-05T05:58:14.496Z,602.00
2024-03-05T05:59:14.438Z,603.00
2024-03-05T06:00:14.475Z,603.00
2024-03-05T06:01:14.525Z,606.00
2024-03-05T06:02:14.711Z,604.00
2024-03-05T06:03:14.962Z,606.00
2024-03-05T06:04:14.659Z,603.00
2024-03-05T06:05:14.719Z,605.00
2024-03-05T06:06:14.757Z,605.00
2024-03-05T06:07:14.837Z,604.00
2024-03-05T06:08:14.945Z,605.00
2024-03-05T06:09:14.951Z,605.00
2024-03-05T06:10:14.995Z,605.00
2024-03-05T06:11:15.123Z,601.00
2024-03-05T06:12:15.054Z,602.00
2024-03-05T06:13:15.507Z,603.00
2024-03-05T06:14:15.171Z,605.00
2024-03-05T06:15:15.227Z,600.00
2024-03-05T06:16:15.264Z,604.00
2024-03-05T06:17:15.289Z,606.00
2024-03-05T06:18:15.548Z,600.00
2024-03-05T06:20:15.543Z,606.00
2024-03-05T06:21:15.499Z,603.00
2024-03-05T06:22:19.845Z,605.00
2024-03-05T06:23:16.620Z,606.00
2024-03-05T06:24:15.548Z,606.00
2024-03-05T06:25:15.671Z,604.00
2024-03-05T06:26:15.572Z,600.00
2024-03-05T06:27:15.571Z,607.00
2024-03-05T06:28:16.041Z,606.00
2024-03-05T06:29:15.545Z,603.00
2024-03-05T06:30:15.546Z,600.00
2024-03-05T06:31:15.715Z,606.00
2024-03-05T06:32:15.574Z,604.00
2024-03-05T06:33:15.643Z,605.00
2024-03-05T06:34:15.595Z,603.00
2024-03-05T06:35:15.575Z,605.00
2024-03-05T06:36:15.634Z,608.00
2024-03-05T06:37:15.814Z,605.00
2024-03-05T06:38:16.020Z,603.00
2024-03-05T06:39:15.821Z,601.00
2024-03-05T06:40:15.892Z,605.00
2024-03-05T06:41:15.952Z,601.00
2024-03-05T06:42:15.992Z,601.00
2024-03-05T06:43:16.473Z,604.00
2024-03-05T06:44:16.072Z,604.00
2024-03-05T06:45:16.151Z,606.00
2024-03-05T06:46:16.202Z,606.00
2024-03-05T06:47:16.232Z,607.00
2024-03-05T06:48:18.040Z,605.00
2024-03-05T06:49:16.547Z,607.00
2024-03-05T06:50:16.384Z,604.00
2024-03-05T06:51:16.426Z,604.00
2024-03-05T06:52:16.551Z,605.00
2024-03-05T06:53:16.987Z,606.00
2024-03-05T06:54:16.583Z,600.00
2024-03-05T06:55:16.707Z,604.00
2024-03-05T06:56:16.701Z,602.00
2024-03-05T06:57:16.742Z,603.00
2024-03-05T06:58:16.824Z,604.00
2024-03-05T06:59:16.926Z,605.00
2024-03-05T07:00:17.180Z,604.00
2024-03-05T07:01:17.189Z,608.00
2024-03-05T07:02:17.027Z,606.00
2024-03-05T07:03:17.065Z,607.00
2024-03-05T07:04:17.150Z,608.00
2024-03-05T07:05:17.122Z,608.00
2024-03-05T07:06:17.236Z,610.00
2024-03-05T07:07:17.321Z,608.00
2024-03-05T07:08:17.346Z,607.00
2024-03-05T07:09:17.366Z,609.00
2024-03-05T07:10:17.425Z,611.00
2024-03-05T07:11:17.703Z,611.00
2024-03-05T07:12:17.526Z,609.00
2024-03-05T07:13:18.040Z,613.00
2024-03-05T07:14:17.703Z,609.00
2024-03-05T07:15:17.717Z,612.00
2024-03-05T07:16:18.357Z,606.00
2024-03-05T07:17:17.784Z,606.00
2024-03-05T07:18:18.042Z,607.00
2024-03-05T07:19:17.902Z,610.00
2024-03-05T07:20:17.971Z,605.00
2024-03-05T07:21:17.996Z,614.00
2024-03-05T07:22:18.106Z,610.00
2024-03-05T07:23:18.525Z,610.00
2024-03-05T07:24:18.147Z,606.00
2024-03-05T07:25:18.292Z,609.00
2024-03-05T07:26:18.450Z,609.00
2024-03-05T07:27:18.343Z,604.00
2024-03-05T07:28:18.522Z,609.00
2024-03-05T07:29:18.479Z,609.00
2024-03-05T07:30:18.543Z,611.00
2024-03-05T07:31:19.504Z,608.00
2024-03-05T07:32:18.640Z,602.00
2024-03-05T07:33:19.013Z,611.00
2024-03-05T07:34:18.839Z,611.00
2024-03-05T07:35:18.958Z,612.00
2024-03-05T07:36:19.156Z,610.00
2024-03-05T07:37:18.973Z,612.00
2024-03-05T07:38:18.974Z,614.00
2024-03-05T07:39:19.030Z,612.00
2024-03-05T07:40:21.771Z,609.00
2024-03-05T07:41:26.606Z,611.00
2024-03-05T07:42:20.097Z,612.00
2024-03-05T07:43:21.038Z,612.00
2024-03-05T07:44:19.134Z,612.00
2024-03-05T07:45:19.111Z,613.00
2024-03-05T07:46:19.107Z,613.00
2024-03-05T07:47:19.111Z,611.00
2024-03-05T07:48:19.557Z,610.00
2024-03-05T07:49:19.197Z,612.00
2024-03-05T07:50:19.131Z,608.00
2024-03-05T07:51:24.528Z,600.00
2024-03-05T07:52:20.146Z,575.00
2024-03-05T07:53:19.138Z,540.00
2024-03-05T07:54:19.106Z,516.00
2024-03-05T07:55:25.693Z,492.00
2024-03-05T07:56:20.202Z,483.00
2024-03-05T07:57:19.139Z,464.00
2024-03-05T07:58:19.558Z,456.00
2024-03-05T07:59:19.129Z,448.00
2024-03-05T08:00:19.112Z,441.00
2024-03-05T08:01:19.262Z,471.00
2024-03-05T08:02:19.202Z,506.00
2024-03-05T08:03:19.144Z,535.00
2024-03-05T08:04:19.148Z,566.00
2024-03-05T08:05:19.133Z,600.00
2024-03-05T08:06:19.154Z,600.00
2024-03-05T08:07:19.198Z,602.00
2024-03-05T08:08:19.492Z,609.00
2024-03-05T08:09:19.169Z,616.00
2024-03-05T08:10:19.244Z,624.00
2024-03-05T08:11:19.182Z,631.00
2024-03-05T08:12:21.700Z,635.00
2024-03-05T08:13:19.188Z,645.00
2024-03-05T08:14:19.154Z,648.00
2024-03-05T08:15:19.220Z,654.00
2024-03-05T08:16:19.232Z,659.00
2024-03-05T08:17:19.116Z,665.00
2024-03-05T08:18:19.572Z,676.00
2024-03-05T08:19:19.164Z,692.00
2024-03-05T08:20:19.136Z,701.00
2024-03-05T08:21:19.166Z,707.00
2024-03-05T08:22:19.174Z,719.00
2024-03-05T08:23:19.214Z,725.00
2024-03-05T08:24:19.148Z,722.00
2024-03-05T08:25:19.181Z,722.00
2024-03-05T08:26:19.200Z,738.00
2024-03-05T08:27:19.199Z,744.00
2024-03-05T08:28:19.589Z,741.00
2024-03-05T08:29:19.137Z,758.00
2024-03-05T08:30:19.135Z,762.00
2024-03-05T08:31:19.210Z,754.00
2024-03-05T08:32:19.171Z,770.00
2024-03-05T08:33:19.158Z,775.00
2024-03-05T08:34:19.659Z,781.00
2024-03-05T08:35:19.186Z,782.00
2024-03-05T08:36:19.201Z,803.00
2024-03-05T08:37:19.179Z,807.00
2024-03-05T08:38:19.187Z,788.00
2024-03-05T08:39:19.568Z,814.00
2024-03-05T08:40:19.181Z,797.00
2024-03-05T08:41:19.252Z,796.00
2024-03-05T08:42:19.183Z,799.00
2024-03-05T08:43:19.211Z,802.00
2024-03-05T08:44:19.227Z,811.00
2024-03-05T08:45:19.175Z,817.00
2024-03-05T08:46:19.323Z,837.00
2024-03-05T08:47:19.174Z,839.00
2024-03-05T08:48:19.272Z,833.00
2024-03-05T08:49:19.231Z,840.00
2024-03-05T08:50:19.210Z,840.00
2024-03-05T08:51:19.199Z,840.00
2024-03-05T08:52:19.215Z,835.00
2024-03-05T08:53:19.205Z,831.00
2024-03-05T08:54:19.210Z,831.00
2024-03-05T08:55:19.526Z,819.00
2024-03-05T08:56:19.207Z,798.00
2024-03-05T08:57:19.231Z,810.00
2024-03-05T08:58:19.594Z,802.00
2024-03-05T08:59:19.381Z,804.00
2024-03-05T09:00:32.389Z,811.00
2024-03-05T09:01:20.484Z,812.00
2024-03-05T09:02:19.432Z,815.00
2024-03-05T09:03:19.555Z,820.00
2024-03-05T09:04:19.440Z,844.00
2024-03-05T09:05:19.424Z,864.00
2024-03-05T09:06:19.441Z,889.00
2024-03-05T09:07:19.487Z,901.00
2024-03-05T09:08:19.534Z,918.00
2024-03-05T09:09:19.483Z,934.00
2024-03-05T09:10:19.549Z,954.00
2024-03-05T09:11:19.800Z,967.00
2024-03-05T09:12:19.667Z,972.00
2024-03-05T09:13:20.102Z,983.00
2024-03-05T09:14:19.830Z,1007.00
2024-03-05T09:15:19.883Z,1003.00
2024-03-05T09:16:19.966Z,1025.00
2024-03-05T09:17:19.982Z,1023.00
2024-03-05T09:18:20.161Z,1032.00
2024-03-05T09:19:20.108Z,1025.00
2024-03-05T09:20:20.148Z,1017.00
2024-03-05T09:21:20.216Z,1017.00
2024-03-05T09:22:20.326Z,1011.00
2024-03-05T09:23:20.568Z,1007.00
2024-03-05T09:24:20.382Z,1005.00
2024-03-05T09:25:20.511Z,1005.00
2024-03-05T09:26:20.480Z,1019.00
2024-03-05T09:27:20.519Z,1032.00
2024-03-05T09:28:20.660Z,1030.00
2024-03-05T09:29:20.642Z,1032.00
2024-03-05T09:30:20.691Z,1037.00
2024-03-05T09:31:20.749Z,1040.00
2024-03-05T09:32:20.796Z,1026.00
2024-03-05T09:33:21.047Z,1040.00
2024-03-05T09:34:20.900Z,1048.00
2024-03-05T09:35:20.877Z,1033.00
2024-03-05T09:36:20.931Z,1049.00
2024-03-05T09:37:21.029Z,1033.00
2024-03-05T09:38:21.114Z,1025.00
2024-03-05T09:39:21.051Z,1043.00
2024-03-05T09:40:21.138Z,1052.00
2024-03-05T09:41:21.119Z,1045.00
2024-03-05T09:42:21.184Z,1079.00
2024-03-05T09:43:21.610Z,1090.00
2024-03-05T09:44:21.280Z,1107.00
2024-03-05T09:45:21.352Z,1105.00
2024-03-05T09:46:21.406Z,1107.00
2024-03-05T09:47:21.434Z,1105.00
2024-03-05T09:48:21.573Z,1097.00
2024-03-05T09:49:23.397Z,1097.00
2024-03-05T09:50:21.639Z,1084.00
2024-03-05T09:51:21.580Z,1077.00
2024-03-05T09:52:21.650Z,1070.00
2024-03-05T09:53:22.074Z,1064.00
2024-03-05T09:54:21.706Z,1059.00
2024-03-05T09:55:21.811Z,1086.00
2024-03-05T09:56:21.813Z,1114.00
2024-03-05T09:57:21.851Z,1129.00
2024-03-05T09:58:21.855Z,1137.00
2024-03-05T09:59:22.402Z,1158.00
2024-03-05T10:00:22.055Z,1168.00
2024-03-05T10:01:22.079Z,1169.00
2024-03-05T10:02:22.075Z,1171.00
2024-03-05T10:03:22.053Z,1123.00
2024-03-05T10:04:22.109Z,1041.00
2024-03-05T10:05:23.122Z,981.00
2024-03-05T10:06:22.135Z,925.00
2024-03-05T10:07:22.202Z,834.00
2024-03-05T10:08:22.286Z,836.00
2024-03-05T10:09:24.586Z,812.00
2024-03-05T10:10:22.987Z,806.00
2024-03-05T10:11:22.443Z,807.00
2024-03-05T10:12:22.353Z,778.00
2024-03-05T10:13:22.398Z,741.00
2024-03-05T10:14:22.365Z,745.00
2024-03-05T10:15:22.739Z,746.00
2024-03-05T10:16:22.394Z,736.00
2024-03-05T10:17:22.345Z,752.00
2024-03-05T10:18:22.569Z,733.00
2024-03-05T10:19:22.436Z,730.00
2024-03-05T10:20:22.399Z,721.00
2024-03-05T10:21:22.367Z,731.00
2024-03-05T10:22:22.412Z,733.00
2024-03-05T10:23:23.133Z,737.00
2024-03-05T10:24:22.398Z,718.00
2024-03-05T10:25:22.450Z,660.00
2024-03-05T10:26:22.382Z,642.00
2024-03-05T10:27:22.462Z,626.00
2024-03-05T10:28:22.532Z,616.00
2024-03-05T10:29:22.421Z,610.00
2024-03-05T10:30:22.443Z,603.00
2024-03-05T10:31:22.428Z,599.00
2024-03-05T10:32:22.381Z,603.00
2024-03-05T10:33:22.458Z,614.00
2024-03-05T10:34:22.413Z,618.00
2024-03-05T10:35:22.436Z,611.00
2024-03-05T10:36:22.407Z,616.00
2024-03-05T10:37:22.416Z,624.00
2024-03-05T10:38:22.612Z,631.00
2024-03-05T10:39:22.433Z,641.00
2024-03-05T10:40:22.486Z,644.00
2024-03-05T10:41:22.844Z,653.00
2024-03-05T10:42:22.426Z,659.00
2024-03-05T10:43:22.640Z,660.00
2024-03-05T10:44:22.506Z,660.00
2024-03-05T10:45:22.443Z,667.00
2024-03-05T10:46:22.452Z,658.00
2024-03-05T10:47:23.855Z,644.00
2024-03-05T10:48:22.682Z,635.00
2024-03-05T10:49:22.714Z,632.00
2024-03-05T10:50:22.691Z,635.00
2024-03-05T10:51:22.722Z,638.00
2024-03-05T10:52:22.800Z,652.00
2024-03-05T10:53:23.153Z,655.00
2024-03-05T10:54:22.877Z,661.00
2024-03-05T10:55:22.861Z,677.00
2024-03-05T10:56:29.146Z,704.00
2024-03-05T10:57:23.878Z,706.00
2024-03-05T10:58:22.924Z,713.00
2024-03-05T10:59:22.921Z,730.00
2024-03-05T11:00:22.902Z,759.00
2024-03-05T11:01:22.980Z,800.00
2024-03-05T11:02:22.917Z,821.00
2024-03-05T11:03:22.919Z,844.00
2024-03-05T11:04:22.965Z,866.00
2024-03-05T11:05:22.947Z,877.00
2024-03-05T11:06:22.942Z,898.00
2024-03-05T11:07:22.983Z,924.00
2024-03-05T11:08:22.929Z,916.00
2024-03-05T11:09:22.909Z,954.00
2024-03-05T11:10:22.941Z,969.00
2024-03-05T11:11:23.059Z,988.00
2024-03-05T11:12:22.976Z,1010.00
2024-03-05T11:13:23.047Z,1009.00
2024-03-05T11:14:23.604Z,1039.00
2024-03-05T11:15:23.134Z,1055.00
2024-03-05T11:16:23.241Z,1064.00
2024-03-05T11:17:24.094Z,1091.00
2024-03-05T11:18:23.314Z,1108.00
2024-03-05T11:19:23.437Z,1116.00
2024-03-05T11:20:23.454Z,1141.00
2024-03-05T11:21:23.448Z,1141.00
2024-03-05T11:22:23.668Z,1153.00
2024-03-05T11:23:23.551Z,1174.00
2024-03-05T11:24:23.611Z,1203.00
2024-03-05T11:25:23.696Z,1216.00
2024-03-05T11:26:23.700Z,1239.00
2024-03-05T11:27:23.745Z,1250.00
2024-03-05T11:28:23.809Z,1272.00
2024-03-05T11:29:23.801Z,1280.00
2024-03-05T11:30:23.943Z,1284.00
2024-03-05T11:31:23.885Z,1303.00
2024-03-05T11:32:23.890Z,1319.00
2024-03-05T11:33:24.021Z,1334.00
2024-03-05T11:34:24.007Z,1360.00
2024-03-05T11:35:23.969Z,1364.00
2024-03-05T11:36:24.037Z,1352.00
2024-03-05T11:37:24.110Z,1359.00
2024-03-05T11:38:24.080Z,1372.00
2024-03-05T11:39:24.096Z,1375.00
2024-03-05T11:40:24.258Z,1387.00
2024-03-05T11:41:24.184Z,1394.00
2024-03-05T11:42:24.207Z,1399.00
2024-03-05T11:43:24.249Z,1399.00
2024-03-05T11:44:24.662Z,1398.00
2024-03-05T11:45:24.315Z,1396.00
2024-03-05T11:46:24.363Z,1393.00
2024-03-05T11:47:24.515Z,1392.00
2024-03-05T11:48:24.419Z,1396.00
2024-03-05T11:49:24.671Z,1386.00
2024-03-05T11:50:24.481Z,1394.00
2024-03-05T11:51:24.549Z,1394.00
2024-03-05T11:52:24.565Z,1391.00
2024-03-05T11:53:24.676Z,1385.00
2024-03-05T11:54:25.671Z,1381.00
2024-03-05T11:55:24.724Z,1374.00
2024-03-05T11:56:24.875Z,1372.00
2024-03-05T11:57:24.769Z,1365.00
2024-03-05T11:58:24.923Z,1377.00
2024-03-05T11:59:25.098Z,1355.00
2024-03-05T12:00:24.927Z,1353.00
2024-03-05T12:01:25.022Z,1354.00
2024-03-05T12:02:25.122Z,1347.00
2024-03-05T12:03:25.062Z,1344.00
2024-03-05T12:04:25.622Z,1348.00
2024-03-05T12:05:25.230Z,1333.00
2024-03-05T12:06:25.203Z,1336.00
2024-03-05T12:07:25.352Z,1336.00
2024-03-05T12:08:25.339Z,1332.00
2024-03-05T12:09:25.634Z,1328.00
2024-03-05T12:10:25.478Z,1331.00
2024-03-05T12:11:25.566Z,1324.00
2024-03-05T12:12:25.566Z,1323.00
2024-03-05T12:13:25.689Z,1321.00
2024-03-05T12:14:26.123Z,1320.00
2024-03-05T12:15:25.752Z,1315.00
2024-03-05T12:16:25.885Z,1309.00
2024-03-05T12:17:26.221Z,1310.00
2024-03-05T12:18:25.989Z,1305.00
2024-03-05T12:19:26.121Z,1305.00
2024-03-05T12:20:26.122Z,1302.00
2024-03-05T12:21:27.578Z,1305.00
2024-03-05T12:22:26.236Z,1299.00
2024-03-05T12:23:41.071Z,1295.00
2024-03-05T12:24:27.612Z,1295.00
2024-03-05T12:25:26.277Z,1296.00
2024-03-05T12:26:26.302Z,1297.00
2024-03-05T12:27:26.294Z,1291.00